sensor_id;sensor_type;location;lat;lon;timestamp;P1;durP1;ratioP1;P2;durP2;ratioP2
72493;SDS011;60520;49.182;-0.348;2023-11-21T00:01:14;1.50;;;0.80;;
72493;SDS011;60520;49.182;-0.348;2023-11-21T00:03:42;1.88;;;0.90;;
72493;SDS011;60520;49.182;-0.348;2023-11-21T00:06:09;1.58;;;0.77;;
72493;SDS011;60520;49.182;-0.348;2023-11-21T00:08:36;1.50;;;0.70;;
72493;SDS011;60520;49.182;-0.348;2023-11-21T00:11:03;1.73;;;0.88;;
72493;SDS011;60520;49.182;-0.348;2023-11-21T00:13:31;1.08;;;0.70;;
72493;SDS011;60520;49.182;-0.348;2023-11-21T00:15:58;1.38;;;0.70;;
72493;SDS011;60520;49.182;-0.348;2023-11-21T00:18:27;1.63;;;0.70;;
72493;SDS011;60520;49.182;-0.348;2023-11-21T00:20:54;1.40;;;0.70;;
72493;SDS011;60520;49.182;-0.348;2023-11-21T00:23:23;1.33;;;0.80;;
72493;SDS011;60520;49.182;-0.348;2023-11-21T00:25:51;1.13;;;0.65;;
72493;SDS011;60520;49.182;-0.348;2023-11-21T00:28:18;1.30;;;0.65;;
72493;SDS011;60520;49.182;-0.348;2023-11-21T00:30:45;1.67;;;0.93;;
72493;SDS011;60520;49.182;-0.348;2023-11-21T00:33:12;2.28;;;0.77;;
72493;SDS011;60520;49.182;-0.348;2023-11-21T00:35:40;2.50;;;0.93;;
72493;SDS011;60520;49.182;-0.348;2023-11-21T00:38:07;1.08;;;0.65;;
72493;SDS011;60520;49.182;-0.348;2023-11-21T00:40:35;1.45;;;0.80;;
72493;SDS011;60520;49.182;-0.348;2023-11-21T00:43:02;1.40;;;0.70;;
72493;SDS011;60520;49.182;-0.348;2023-11-21T00:45:30;1.75;;;0.85;;
72493;SDS011;60520;49.182;-0.348;2023-11-21T00:47:57;1.52;;;0.70;;
72493;SDS011;60520;49.182;-0.348;2023-11-21T00:50:24;1.48;;;0.73;;
72493;SDS011;60520;49.182;-0.348;2023-11-21T00:52:53;2.20;;;0.90;;
72493;SDS011;60520;49.182;-0.348;2023-11-21T00:55:21;2.10;;;0.88;;
72493;SDS011;60520;49.182;-0.348;2023-11-21T00:57:48;2.28;;;0.80;;
72493;SDS011;60520;49.182;-0.348;2023-11-21T01:00:15;2.10;;;0.70;;
72493;SDS011;60520;49.182;-0.348;2023-11-21T01:02:43;1.15;;;0.70;;
72493;SDS011;60520;49.182;-0.348;2023-11-21T01:05:10;2.55;;;0.80;;
72493;SDS011;60520;49.182;-0.348;2023-11-21T01:07:37;1.55;;;0.68;;
72493;SDS011;60520;49.182;-0.348;2023-11-21T01:10:06;1.60;;;0.88;;
72493;SDS011;60520;49.182;-0.348;2023-11-21T01:12:34;1.38;;;0.60;;
72493;SDS011;60520;49.182;-0.348;2023-11-21T01:15:01;1.35;;;0.52;;
72493;SDS011;60520;49.182;-0.348;2023-11-21T01:17:28;1.30;;;0.88;;
72493;SDS011;60520;49.182;-0.348;2023-11-21T01:19:56;2.30;;;0.70;;
72493;SDS011;60520;49.182;-0.348;2023-11-21T01:22:24;1.75;;;0.70;;
72493;SDS011;60520;49.182;-0.348;2023-11-21T01:24:51;1.60;;;0.80;;
72493;SDS011;60520;49.182;-0.348;2023-11-21T01:27:20;1.73;;;0.98;;
72493;SDS011;60520;49.182;-0.348;2023-11-21T01:29:47;1.27;;;0.77;;
72493;SDS011;60520;49.182;-0.348;2023-11-21T01:32:14;1.90;;;0.73;;
72493;SDS011;60520;49.182;-0.348;2023-11-21T01:34:41;1.80;;;0.73;;
72493;SDS011;60520;49.182;-0.348;2023-11-21T01:37:08;1.65;;;0.70;;
72493;SDS011;60520;49.182;-0.348;2023-11-21T01:39:37;1.92;;;0.95;;
72493;SDS011;60520;49.182;-0.348;2023-11-21T01:42:04;0.85;;;0.63;;
72493;SDS011;60520;49.182;-0.348;2023-11-21T01:44:34;2.70;;;0.80;;
72493;SDS011;60520;49.182;-0.348;2023-11-21T01:47:01;1.00;;;0.80;;
72493;SDS011;60520;49.182;-0.348;2023-11-21T01:49:30;1.33;;;0.77;;
72493;SDS011;60520;49.182;-0.348;2023-11-21T01:51:58;1.30;;;0.68;;
72493;SDS011;60520;49.182;-0.348;2023-11-21T01:54:25;1.55;;;0.82;;
72493;SDS011;60520;49.182;-0.348;2023-11-21T01:56:56;1.30;;;0.73;;
72493;SDS011;60520;49.182;-0.348;2023-11-21T01:59:27;1.65;;;0.70;;
72493;SDS011;60520;49.182;-0.348;2023-11-21T02:01:58;1.33;;;0.70;;
72493;SDS011;60520;49.182;-0.348;2023-11-21T02:04:25;2.10;;;0.80;;
72493;SDS011;60520;49.182;-0.348;2023-11-21T02:06:52;0.90;;;0.70;;
72493;SDS011;60520;49.182;-0.348;2023-11-21T02:09:23;2.15;;;0.68;;
72493;SDS011;60520;49.182;-0.348;2023-11-21T02:11:50;1.08;;;0.60;;
72493;SDS011;60520;49.182;-0.348;2023-11-21T02:14:19;1.55;;;0.80;;
72493;SDS011;60520;49.182;-0.348;2023-11-21T02:16:48;1.52;;;0.65;;
72493;SDS011;60520;49.182;-0.348;2023-11-21T02:19:18;1.45;;;0.60;;
72493;SDS011;60520;49.182;-0.348;2023-11-21T02:21:47;0.95;;;0.60;;
72493;SDS011;60520;49.182;-0.348;2023-11-21T02:24:18;1.33;;;0.70;;
72493;SDS011;60520;49.182;-0.348;2023-11-21T02:26:45;1.40;;;0.80;;
72493;SDS011;60520;49.182;-0.348;2023-11-21T02:29:12;1.27;;;0.65;;
72493;SDS011;60520;49.182;-0.348;2023-11-21T02:31:42;1.90;;;0.70;;
72493;SDS011;60520;49.182;-0.348;2023-11-21T02:34:13;0.90;;;0.52;;
72493;SDS011;60520;49.182;-0.348;2023-11-21T02:36:40;1.90;;;0.75;;
72493;SDS011;60520;49.182;-0.348;2023-11-21T02:39:08;2.10;;;0.80;;
72493;SDS011;60520;49.182;-0.348;2023-11-21T02:41:37;1.33;;;0.70;;
72493;SDS011;60520;49.182;-0.348;2023-11-21T02:44:05;1.27;;;0.70;;
72493;SDS011;60520;49.182;-0.348;2023-11-21T02:46:32;2.05;;;0.80;;
72493;SDS011;60520;49.182;-0.348;2023-11-21T02:48:59;0.77;;;0.52;;
72493;SDS011;60520;49.182;-0.348;2023-11-21T02:51:27;1.25;;;0.80;;
72493;SDS011;60520;49.182;-0.348;2023-11-21T02:53:54;1.98;;;0.70;;
72493;SDS011;60520;49.182;-0.348;2023-11-21T02:56:23;1.30;;;0.60;;
72493;SDS011;60520;49.182;-0.348;2023-11-21T02:58:54;1.75;;;0.90;;
72493;SDS011;60520;49.182;-0.348;2023-11-21T03:01:22;3.70;;;0.90;;
72493;SDS011;60520;49.182;-0.348;2023-11-21T03:03:49;1.40;;;0.85;;
72493;SDS011;60520;49.182;-0.348;2023-11-21T03:06:17;2.08;;;0.68;;
72493;SDS011;60520;49.182;-0.348;2023-11-21T03:08:44;1.67;;;0.68;;
72493;SDS011;60520;49.182;-0.348;2023-11-21T03:11:11;1.83;;;0.52;;
72493;SDS011;60520;49.182;-0.348;2023-11-21T03:13:38;1.25;;;0.60;;
72493;SDS011;60520;49.182;-0.348;2023-11-21T03:16:08;0.77;;;0.50;;
72493;SDS011;60520;49.182;-0.348;2023-11-21T03:18:35;1.05;;;0.60;;
72493;SDS011;60520;49.182;-0.348;2023-11-21T03:21:03;1.45;;;0.70;;
72493;SDS011;60520;49.182;-0.348;2023-11-21T03:23:30;1.33;;;0.65;;
72493;SDS011;60520;49.182;-0.348;2023-11-21T03:25:57;1.45;;;0.70;;
72493;SDS011;60520;49.182;-0.348;2023-11-21T03:28:25;0.75;;;0.60;;
72493;SDS011;60520;49.182;-0.348;2023-11-21T03:30:52;1.55;;;0.85;;
72493;SDS011;60520;49.182;-0.348;2023-11-21T03:33:21;1.40;;;0.60;;
72493;SDS011;60520;49.182;-0.348;2023-11-21T03:35:48;1.30;;;0.60;;
72493;SDS011;60520;49.182;-0.348;2023-11-21T03:38:15;1.30;;;0.70;;
72493;SDS011;60520;49.182;-0.348;2023-11-21T03:40:42;1.45;;;0.65;;
72493;SDS011;60520;49.182;-0.348;2023-11-21T03:43:09;0.85;;;0.60;;
72493;SDS011;60520;49.182;-0.348;2023-11-21T03:45:37;1.23;;;0.80;;
72493;SDS011;60520;49.182;-0.348;2023-11-21T03:48:05;1.67;;;0.60;;
72493;SDS011;60520;49.182;-0.348;2023-11-21T03:50:34;1.45;;;0.70;;
72493;SDS011;60520;49.182;-0.348;2023-11-21T03:53:01;1.98;;;0.80;;
72493;SDS011;60520;49.182;-0.348;2023-11-21T03:55:28;1.65;;;0.70;;
72493;SDS011;60520;49.182;-0.348;2023-11-21T03:57:56;1.05;;;0.60;;
72493;SDS011;60520;49.182;-0.348;2023-11-21T04:00:24;1.10;;;0.70;;
72493;SDS011;60520;49.182;-0.348;2023-11-21T04:02:51;2.65;;;0.80;;
72493;SDS011;60520;49.182;-0.348;2023-11-21T04:05:19;1.05;;;0.60;;
72493;SDS011;60520;49.182;-0.348;2023-11-21T04:07:49;1.35;;;0.60;;
72493;SDS011;60520;49.182;-0.348;2023-11-21T04:10:16;1.27;;;0.60;;
72493;SDS011;60520;49.182;-0.348;2023-11-21T04:12:43;1.65;;;0.60;;
72493;SDS011;60520;49.182;-0.348;2023-11-21T04:15:11;1.33;;;0.52;;
72493;SDS011;60520;49.182;-0.348;2023-11-21T04:17:39;0.93;;;0.50;;
72493;SDS011;60520;49.182;-0.348;2023-11-21T04:20:06;1.60;;;0.70;;
72493;SDS011;60520;49.182;-0.348;2023-11-21T04:22:36;1.48;;;0.77;;
72493;SDS011;60520;49.182;-0.348;2023-11-21T04:25:05;1.30;;;0.60;;
72493;SDS011;60520;49.182;-0.348;2023-11-21T04:27:32;1.65;;;0.68;;
72493;SDS011;60520;49.182;-0.348;2023-11-21T04:29:59;1.25;;;0.63;;
72493;SDS011;60520;49.182;-0.348;2023-11-21T04:32:26;1.55;;;0.50;;
72493;SDS011;60520;49.182;-0.348;2023-11-21T04:34:53;2.00;;;0.77;;
72493;SDS011;60520;49.182;-0.348;2023-11-21T04:37:20;1.48;;;0.60;;
72493;SDS011;60520;49.182;-0.348;2023-11-21T04:39:48;1.70;;;0.60;;
72493;SDS011;60520;49.182;-0.348;2023-11-21T04:42:16;1.25;;;0.68;;
72493;SDS011;60520;49.182;-0.348;2023-11-21T04:44:43;1.42;;;0.60;;
72493;SDS011;60520;49.182;-0.348;2023-11-21T04:47:10;1.50;;;0.50;;
72493;SDS011;60520;49.182;-0.348;2023-11-21T04:49:39;2.45;;;0.70;;
72493;SDS011;60520;49.182;-0.348;2023-11-21T04:52:06;1.80;;;0.60;;
72493;SDS011;60520;49.182;-0.348;2023-11-21T04:54:34;1.35;;;0.60;;
72493;SDS011;60520;49.182;-0.348;2023-11-21T04:57:01;1.20;;;0.70;;
72493;SDS011;60520;49.182;-0.348;2023-11-21T04:59:31;1.00;;;0.55;;
72493;SDS011;60520;49.182;-0.348;2023-11-21T05:01:58;1.10;;;0.68;;
72493;SDS011;60520;49.182;-0.348;2023-11-21T05:04:26;2.00;;;0.70;;
72493;SDS011;60520;49.182;-0.348;2023-11-21T05:06:53;1.20;;;0.60;;
72493;SDS011;60520;49.182;-0.348;2023-11-21T05:09:20;1.30;;;0.60;;
72493;SDS011;60520;49.182;-0.348;2023-11-21T05:11:47;1.00;;;0.50;;
72493;SDS011;60520;49.182;-0.348;2023-11-21T05:14:15;0.93;;;0.60;;
72493;SDS011;60520;49.182;-0.348;2023-11-21T05:16:45;1.40;;;0.68;;
72493;SDS011;60520;49.182;-0.348;2023-11-21T05:19:12;1.40;;;0.70;;
72493;SDS011;60520;49.182;-0.348;2023-11-21T05:21:39;2.45;;;0.85;;
72493;SDS011;60520;49.182;-0.348;2023-11-21T05:24:06;1.00;;;0.63;;
72493;SDS011;60520;49.182;-0.348;2023-11-21T05:26:34;1.80;;;0.70;;
72493;SDS011;60520;49.182;-0.348;2023-11-21T05:29:01;2.08;;;0.65;;
72493;SDS011;60520;49.182;-0.348;2023-11-21T05:31:28;0.77;;;0.50;;
72493;SDS011;60520;49.182;-0.348;2023-11-21T05:33:57;1.10;;;0.60;;
72493;SDS011;60520;49.182;-0.348;2023-11-21T05:36:24;2.83;;;0.88;;
72493;SDS011;60520;49.182;-0.348;2023-11-21T05:38:51;2.58;;;0.75;;
72493;SDS011;60520;49.182;-0.348;2023-11-21T05:41:18;1.20;;;0.65;;
72493;SDS011;60520;49.182;-0.348;2023-11-21T05:43:46;1.38;;;0.68;;
72493;SDS011;60520;49.182;-0.348;2023-11-21T05:46:13;0.90;;;0.50;;
72493;SDS011;60520;49.182;-0.348;2023-11-21T05:48:40;1.67;;;0.60;;
72493;SDS011;60520;49.182;-0.348;2023-11-21T05:51:09;1.05;;;0.50;;
72493;SDS011;60520;49.182;-0.348;2023-11-21T05:53:37;1.05;;;0.60;;
72493;SDS011;60520;49.182;-0.348;2023-11-21T05:56:04;0.73;;;0.52;;
72493;SDS011;60520;49.182;-0.348;2023-11-21T05:58:32;1.50;;;0.70;;
72493;SDS011;60520;49.182;-0.348;2023-11-21T06:00:59;1.15;;;0.60;;
72493;SDS011;60520;49.182;-0.348;2023-11-21T06:03:26;1.77;;;0.68;;
72493;SDS011;60520;49.182;-0.348;2023-11-21T06:05:54;1.60;;;0.60;;
72493;SDS011;60520;49.182;-0.348;2023-11-21T06:08:22;1.45;;;0.63;;
72493;SDS011;60520;49.182;-0.348;2023-11-21T06:10:49;1.25;;;0.60;;
72493;SDS011;60520;49.182;-0.348;2023-11-21T06:13:17;1.55;;;0.63;;
72493;SDS011;60520;49.182;-0.348;2023-11-21T06:15:49;1.02;;;0.50;;
72493;SDS011;60520;49.182;-0.348;2023-11-21T06:18:16;1.20;;;0.70;;
72493;SDS011;60520;49.182;-0.348;2023-11-21T06:20:44;2.25;;;0.88;;
72493;SDS011;60520;49.182;-0.348;2023-11-21T06:23:11;1.30;;;0.45;;
72493;SDS011;60520;49.182;-0.348;2023-11-21T06:25:40;0.50;;;0.47;;
72493;SDS011;60520;49.182;-0.348;2023-11-21T06:28:07;0.80;;;0.50;;
72493;SDS011;60520;49.182;-0.348;2023-11-21T06:30:35;0.88;;;0.57;;
72493;SDS011;60520;49.182;-0.348;2023-11-21T06:33:03;0.70;;;0.50;;
72493;SDS011;60520;49.182;-0.348;2023-11-21T06:35:31;0.88;;;0.45;;
72493;SDS011;60520;49.182;-0.348;2023-11-21T06:37:59;1.20;;;0.70;;
72493;SDS011;60520;49.182;-0.348;2023-11-21T06:40:27;1.40;;;0.70;;
72493;SDS011;60520;49.182;-0.348;2023-11-21T06:42:56;0.68;;;0.40;;
72493;SDS011;60520;49.182;-0.348;2023-11-21T06:45:24;0.47;;;0.40;;
72493;SDS011;60520;49.182;-0.348;2023-11-21T06:47:51;1.20;;;0.60;;
72493;SDS011;60520;49.182;-0.348;2023-11-21T06:50:19;1.08;;;0.60;;
72493;SDS011;60520;49.182;-0.348;2023-11-21T06:52:46;1.48;;;0.60;;
72493;SDS011;60520;49.182;-0.348;2023-11-21T06:55:13;0.98;;;0.50;;
72493;SDS011;60520;49.182;-0.348;2023-11-21T06:57:41;1.10;;;0.60;;
72493;SDS011;60520;49.182;-0.348;2023-11-21T07:00:10;1.00;;;0.45;;
72493;SDS011;60520;49.182;-0.348;2023-11-21T07:02:37;1.55;;;0.57;;
72493;SDS011;60520;49.182;-0.348;2023-11-21T07:05:05;1.27;;;0.65;;
72493;SDS011;60520;49.182;-0.348;2023-11-21T07:07:32;1.70;;;0.50;;
72493;SDS011;60520;49.182;-0.348;2023-11-21T07:10:02;2.78;;;0.60;;
72493;SDS011;60520;49.182;-0.348;2023-11-21T07:12:29;3.65;;;0.60;;
72493;SDS011;60520;49.182;-0.348;2023-11-21T07:14:56;3.10;;;0.65;;
72493;SDS011;60520;49.182;-0.348;2023-11-21T07:17:24;4.50;;;0.65;;
72493;SDS011;60520;49.182;-0.348;2023-11-21T07:19:52;5.50;;;0.88;;
72493;SDS011;60520;49.182;-0.348;2023-11-21T07:22:20;4.22;;;0.65;;
72493;SDS011;60520;49.182;-0.348;2023-11-21T07:24:47;21.23;;;2.17;;
72493;SDS011;60520;49.182;-0.348;2023-11-21T07:27:15;26.15;;;2.15;;
72493;SDS011;60520;49.182;-0.348;2023-11-21T07:29:43;25.52;;;1.98;;
72493;SDS011;60520;49.182;-0.348;2023-11-21T07:32:10;20.55;;;1.60;;
72493;SDS011;60520;49.182;-0.348;2023-11-21T07:34:39;19.15;;;1.42;;
72493;SDS011;60520;49.182;-0.348;2023-11-21T07:37:06;14.52;;;1.50;;
72493;SDS011;60520;49.182;-0.348;2023-11-21T07:39:34;11.98;;;1.50;;
72493;SDS011;60520;49.182;-0.348;2023-11-21T07:42:01;14.82;;;1.48;;
72493;SDS011;60520;49.182;-0.348;2023-11-21T07:44:29;13.93;;;1.42;;
72493;SDS011;60520;49.182;-0.348;2023-11-21T07:46:56;18.90;;;1.90;;
72493;SDS011;60520;49.182;-0.348;2023-11-21T07:49:23;17.38;;;1.67;;
72493;SDS011;60520;49.182;-0.348;2023-11-21T07:51:53;23.77;;;2.25;;
72493;SDS011;60520;49.182;-0.348;2023-11-21T07:54:20;21.00;;;1.85;;
72493;SDS011;60520;49.182;-0.348;2023-11-21T07:56:49;23.38;;;1.95;;
72493;SDS011;60520;49.182;-0.348;2023-11-21T07:59:16;14.10;;;1.65;;
72493;SDS011;60520;49.182;-0.348;2023-11-21T08:01:43;25.20;;;2.35;;
72493;SDS011;60520;49.182;-0.348;2023-11-21T08:04:11;15.20;;;1.77;;
72493;SDS011;60520;49.182;-0.348;2023-11-21T08:06:38;16.30;;;1.63;;
72493;SDS011;60520;49.182;-0.348;2023-11-21T08:09:07;11.52;;;1.45;;
72493;SDS011;60520;49.182;-0.348;2023-11-21T08:11:37;11.43;;;1.65;;
72493;SDS011;60520;49.182;-0.348;2023-11-21T08:14:04;19.10;;;1.60;;
72493;SDS011;60520;49.182;-0.348;2023-11-21T08:16:31;13.50;;;1.23;;
72493;SDS011;60520;49.182;-0.348;2023-11-21T08:18:58;11.10;;;1.30;;
72493;SDS011;60520;49.182;-0.348;2023-11-21T08:21:26;13.02;;;1.20;;
72493;SDS011;60520;49.182;-0.348;2023-11-21T08:23:54;14.15;;;1.80;;
72493;SDS011;60520;49.182;-0.348;2023-11-21T08:26:23;11.15;;;1.10;;
72493;SDS011;60520;49.182;-0.348;2023-11-21T08:28:50;10.40;;;1.10;;
72493;SDS011;60520;49.182;-0.348;2023-11-21T08:31:23;6.97;;;0.95;;
72493;SDS011;60520;49.182;-0.348;2023-11-21T08:33:50;7.10;;;0.95;;
72493;SDS011;60520;49.182;-0.348;2023-11-21T08:36:17;6.85;;;1.20;;
72493;SDS011;60520;49.182;-0.348;2023-11-21T08:38:46;4.50;;;0.93;;
72493;SDS011;60520;49.182;-0.348;2023-11-21T08:41:14;5.75;;;1.15;;
72493;SDS011;60520;49.182;-0.348;2023-11-21T08:43:42;6.60;;;0.73;;
72493;SDS011;60520;49.182;-0.348;2023-11-21T08:46:10;4.82;;;0.88;;
72493;SDS011;60520;49.182;-0.348;2023-11-21T09:06:58;5.40;;;0.70;;
72493;SDS011;60520;49.182;-0.348;2023-11-21T09:21:13;5.57;;;0.77;;
72493;SDS011;60520;49.182;-0.348;2023-11-21T09:23:40;3.15;;;0.90;;
72493;SDS011;60520;49.182;-0.348;2023-11-21T09:26:07;7.97;;;1.00;;
72493;SDS011;60520;49.182;-0.348;2023-11-21T09:28:35;5.43;;;0.80;;
72493;SDS011;60520;49.182;-0.348;2023-11-21T09:31:03;3.30;;;0.60;;
72493;SDS011;60520;49.182;-0.348;2023-11-21T09:33:30;3.92;;;0.60;;
72493;SDS011;60520;49.182;-0.348;2023-11-21T09:35:59;3.22;;;0.65;;
72493;SDS011;60520;49.182;-0.348;2023-11-21T09:38:31;4.43;;;0.80;;
72493;SDS011;60520;49.182;-0.348;2023-11-21T09:40:58;2.53;;;0.60;;
72493;SDS011;60520;49.182;-0.348;2023-11-21T09:43:26;5.00;;;0.70;;
72493;SDS011;60520;49.182;-0.348;2023-11-21T09:45:56;5.35;;;1.10;;
72493;SDS011;60520;49.182;-0.348;2023-11-21T09:48:25;8.90;;;0.65;;
72493;SDS011;60520;49.182;-0.348;2023-11-21T09:50:53;2.37;;;0.77;;
72493;SDS011;60520;49.182;-0.348;2023-11-21T09:53:21;2.28;;;0.77;;
72493;SDS011;60520;49.182;-0.348;2023-11-21T09:55:51;6.00;;;0.70;;
72493;SDS011;60520;49.182;-0.348;2023-11-21T09:58:19;2.70;;;0.80;;
72493;SDS011;60520;49.182;-0.348;2023-11-21T10:00:48;2.45;;;0.75;;
72493;SDS011;60520;49.182;-0.348;2023-11-21T10:03:15;4.68;;;0.80;;
72493;SDS011;60520;49.182;-0.348;2023-11-21T10:05:43;2.20;;;0.60;;
72493;SDS011;60520;49.182;-0.348;2023-11-21T10:08:11;2.08;;;0.77;;
72493;SDS011;60520;49.182;-0.348;2023-11-21T10:10:41;3.95;;;0.60;;
72493;SDS011;60520;49.182;-0.348;2023-11-21T10:13:11;2.72;;;0.90;;
72493;SDS011;60520;49.182;-0.348;2023-11-21T10:15:41;9.07;;;0.60;;
72493;SDS011;60520;49.182;-0.348;2023-11-21T10:18:13;4.28;;;0.73;;
72493;SDS011;60520;49.182;-0.348;2023-11-21T10:20:41;2.92;;;0.70;;
72493;SDS011;60520;49.182;-0.348;2023-11-21T10:23:08;5.60;;;0.77;;
72493;SDS011;60520;49.182;-0.348;2023-11-21T10:25:38;5.32;;;0.90;;
72493;SDS011;60520;49.182;-0.348;2023-11-21T10:28:05;1.20;;;0.50;;
72493;SDS011;60520;49.182;-0.348;2023-11-21T10:30:34;3.08;;;0.80;;
72493;SDS011;60520;49.182;-0.348;2023-11-21T10:33:02;2.83;;;0.70;;
72493;SDS011;60520;49.182;-0.348;2023-11-21T10:35:39;3.97;;;0.60;;
72493;SDS011;60520;49.182;-0.348;2023-11-21T10:38:06;4.50;;;0.73;;
72493;SDS011;60520;49.182;-0.348;2023-11-21T10:40:37;4.38;;;0.75;;
72493;SDS011;60520;49.182;-0.348;2023-11-21T10:43:07;4.43;;;0.77;;
72493;SDS011;60520;49.182;-0.348;2023-11-21T10:45:36;2.22;;;0.80;;
72493;SDS011;60520;49.182;-0.348;2023-11-21T10:48:07;7.07;;;0.80;;
72493;SDS011;60520;49.182;-0.348;2023-11-21T10:50:35;3.55;;;0.68;;
72493;SDS011;60520;49.182;-0.348;2023-11-21T10:53:03;2.50;;;0.80;;
72493;SDS011;60520;49.182;-0.348;2023-11-21T10:55:31;4.43;;;0.82;;
72493;SDS011;60520;49.182;-0.348;2023-11-21T10:57:58;4.47;;;0.90;;
72493;SDS011;60520;49.182;-0.348;2023-11-21T11:00:27;3.58;;;0.68;;
72493;SDS011;60520;49.182;-0.348;2023-11-21T11:02:55;2.75;;;0.80;;
72493;SDS011;60520;49.182;-0.348;2023-11-21T11:05:24;2.67;;;0.68;;
72493;SDS011;60520;49.182;-0.348;2023-11-21T11:07:53;2.35;;;0.68;;
72493;SDS011;60520;49.182;-0.348;2023-11-21T11:10:25;3.17;;;0.68;;
72493;SDS011;60520;49.182;-0.348;2023-11-21T11:12:53;2.10;;;0.70;;
72493;SDS011;60520;49.182;-0.348;2023-11-21T11:15:20;2.47;;;0.65;;
72493;SDS011;60520;49.182;-0.348;2023-11-21T11:17:48;1.77;;;0.70;;
72493;SDS011;60520;49.182;-0.348;2023-11-21T11:20:17;1.20;;;0.70;;
72493;SDS011;60520;49.182;-0.348;2023-11-21T11:22:48;2.40;;;0.73;;
72493;SDS011;60520;49.182;-0.348;2023-11-21T11:25:25;3.95;;;0.70;;
72493;SDS011;60520;49.182;-0.348;2023-11-21T11:27:57;5.03;;;0.70;;
72493;SDS011;60520;49.182;-0.348;2023-11-21T11:30:32;4.10;;;0.90;;
72493;SDS011;60520;49.182;-0.348;2023-11-21T11:33:07;1.95;;;0.70;;
72493;SDS011;60520;49.182;-0.348;2023-11-21T11:35:41;5.18;;;0.80;;
72493;SDS011;60520;49.182;-0.348;2023-11-21T11:38:10;5.93;;;0.80;;
72493;SDS011;60520;49.182;-0.348;2023-11-21T11:40:40;2.60;;;0.60;;
72493;SDS011;60520;49.182;-0.348;2023-11-21T11:43:08;4.53;;;0.90;;
72493;SDS011;60520;49.182;-0.348;2023-11-21T11:45:35;2.22;;;0.70;;
72493;SDS011;60520;49.182;-0.348;2023-11-21T11:48:06;2.88;;;0.90;;
72493;SDS011;60520;49.182;-0.348;2023-11-21T11:50:34;2.00;;;0.80;;
72493;SDS011;60520;49.182;-0.348;2023-11-21T11:53:15;2.58;;;0.60;;
72493;SDS011;60520;49.182;-0.348;2023-11-21T11:55:43;4.28;;;0.60;;
72493;SDS011;60520;49.182;-0.348;2023-11-21T11:58:10;1.70;;;0.60;;
72493;SDS011;60520;49.182;-0.348;2023-11-21T12:00:37;4.25;;;0.77;;
72493;SDS011;60520;49.182;-0.348;2023-11-21T12:03:06;2.25;;;0.70;;
72493;SDS011;60520;49.182;-0.348;2023-11-21T12:05:34;1.10;;;0.60;;
72493;SDS011;60520;49.182;-0.348;2023-11-21T12:08:04;0.88;;;0.50;;
72493;SDS011;60520;49.182;-0.348;2023-11-21T12:10:33;1.55;;;0.70;;
72493;SDS011;60520;49.182;-0.348;2023-11-21T12:13:02;1.63;;;0.70;;
72493;SDS011;60520;49.182;-0.348;2023-11-21T12:15:30;1.63;;;0.60;;
72493;SDS011;60520;49.182;-0.348;2023-11-21T12:17:57;3.33;;;0.50;;
72493;SDS011;60520;49.182;-0.348;2023-11-21T12:20:25;3.25;;;0.73;;
72493;SDS011;60520;49.182;-0.348;2023-11-21T12:22:53;1.73;;;0.77;;
72493;SDS011;60520;49.182;-0.348;2023-11-21T12:25:21;2.10;;;0.73;;
72493;SDS011;60520;49.182;-0.348;2023-11-21T12:27:51;1.33;;;0.60;;
72493;SDS011;60520;49.182;-0.348;2023-11-21T12:30:20;1.85;;;0.55;;
72493;SDS011;60520;49.182;-0.348;2023-11-21T12:32:48;2.67;;;0.70;;
72493;SDS011;60520;49.182;-0.348;2023-11-21T12:35:16;3.03;;;0.47;;
72493;SDS011;60520;49.182;-0.348;2023-11-21T12:37:44;1.33;;;0.57;;
72493;SDS011;60520;49.182;-0.348;2023-11-21T12:40:12;1.85;;;0.40;;
72493;SDS011;60520;49.182;-0.348;2023-11-21T12:42:41;2.00;;;0.65;;
72493;SDS011;60520;49.182;-0.348;2023-11-21T12:45:10;1.05;;;0.50;;
72493;SDS011;60520;49.182;-0.348;2023-11-21T12:47:45;1.17;;;0.70;;
72493;SDS011;60520;49.182;-0.348;2023-11-21T12:50:13;1.75;;;0.65;;
72493;SDS011;60520;49.182;-0.348;2023-11-21T12:52:43;1.33;;;0.60;;
72493;SDS011;60520;49.182;-0.348;2023-11-21T12:55:16;2.17;;;0.70;;
72493;SDS011;60520;49.182;-0.348;2023-11-21T12:57:44;1.73;;;0.63;;
72493;SDS011;60520;49.182;-0.348;2023-11-21T13:00:13;2.17;;;0.63;;
72493;SDS011;60520;49.182;-0.348;2023-11-21T13:02:52;1.38;;;0.50;;
72493;SDS011;60520;49.182;-0.348;2023-11-21T13:05:29;1.17;;;0.60;;
72493;SDS011;60520;49.182;-0.348;2023-11-21T13:07:57;2.13;;;0.70;;
72493;SDS011;60520;49.182;-0.348;2023-11-21T13:10:27;1.48;;;0.52;;
72493;SDS011;60520;49.182;-0.348;2023-11-21T13:12:56;0.63;;;0.40;;
72493;SDS011;60520;49.182;-0.348;2023-11-21T13:15:26;1.58;;;0.60;;
72493;SDS011;60520;49.182;-0.348;2023-11-21T13:17:56;1.30;;;0.63;;
72493;SDS011;60520;49.182;-0.348;2023-11-21T13:20:23;1.98;;;0.70;;
72493;SDS011;60520;49.182;-0.348;2023-11-21T13:22:51;1.05;;;0.50;;
72493;SDS011;60520;49.182;-0.348;2023-11-21T13:25:21;1.23;;;0.60;;
72493;SDS011;60520;49.182;-0.348;2023-11-21T13:27:48;1.27;;;0.68;;
72493;SDS011;60520;49.182;-0.348;2023-11-21T13:30:18;1.10;;;0.60;;
72493;SDS011;60520;49.182;-0.348;2023-11-21T13:32:50;0.85;;;0.60;;
72493;SDS011;60520;49.182;-0.348;2023-11-21T13:35:17;1.60;;;0.70;;
72493;SDS011;60520;49.182;-0.348;2023-11-21T13:37:48;0.65;;;0.47;;
72493;SDS011;60520;49.182;-0.348;2023-11-21T13:40:19;1.40;;;0.50;;
72493;SDS011;60520;49.182;-0.348;2023-11-21T13:42:48;1.45;;;0.60;;
72493;SDS011;60520;49.182;-0.348;2023-11-21T13:45:18;0.98;;;0.60;;
72493;SDS011;60520;49.182;-0.348;2023-11-21T13:47:45;2.13;;;0.70;;
72493;SDS011;60520;49.182;-0.348;2023-11-21T13:50:14;2.60;;;0.70;;
72493;SDS011;60520;49.182;-0.348;2023-11-21T13:52:47;0.82;;;0.50;;
72493;SDS011;60520;49.182;-0.348;2023-11-21T13:55:14;1.92;;;0.60;;
72493;SDS011;60520;49.182;-0.348;2023-11-21T13:57:41;1.58;;;0.50;;
72493;SDS011;60520;49.182;-0.348;2023-11-21T14:00:12;2.15;;;0.60;;
72493;SDS011;60520;49.182;-0.348;2023-11-21T14:03:01;0.52;;;0.40;;
72493;SDS011;60520;49.182;-0.348;2023-11-21T14:05:34;1.30;;;0.50;;
72493;SDS011;60520;49.182;-0.348;2023-11-21T14:08:01;1.65;;;0.60;;
72493;SDS011;60520;49.182;-0.348;2023-11-21T14:10:29;1.30;;;0.70;;
72493;SDS011;60520;49.182;-0.348;2023-11-21T14:13:05;2.30;;;0.60;;
72493;SDS011;60520;49.182;-0.348;2023-11-21T14:15:32;1.08;;;0.50;;
72493;SDS011;60520;49.182;-0.348;2023-11-21T14:18:03;1.17;;;0.43;;
72493;SDS011;60520;49.182;-0.348;2023-11-21T14:20:34;1.52;;;0.55;;
72493;SDS011;60520;49.182;-0.348;2023-11-21T14:23:02;4.38;;;0.70;;
72493;SDS011;60520;49.182;-0.348;2023-11-21T14:25:29;2.50;;;0.77;;
72493;SDS011;60520;49.182;-0.348;2023-11-21T14:27:57;1.88;;;0.47;;
72493;SDS011;60520;49.182;-0.348;2023-11-21T14:30:24;0.93;;;0.50;;
72493;SDS011;60520;49.182;-0.348;2023-11-21T14:32:52;2.28;;;0.77;;
72493;SDS011;60520;49.182;-0.348;2023-11-21T14:35:19;1.75;;;0.68;;
72493;SDS011;60520;49.182;-0.348;2023-11-21T14:37:48;1.83;;;0.60;;
72493;SDS011;60520;49.182;-0.348;2023-11-21T14:40:15;1.63;;;0.70;;
72493;SDS011;60520;49.182;-0.348;2023-11-21T14:42:46;1.65;;;0.60;;
72493;SDS011;60520;49.182;-0.348;2023-11-21T14:45:13;1.73;;;0.70;;
72493;SDS011;60520;49.182;-0.348;2023-11-21T14:47:44;0.77;;;0.43;;
72493;SDS011;60520;49.182;-0.348;2023-11-21T14:50:18;1.42;;;0.50;;
72493;SDS011;60520;49.182;-0.348;2023-11-21T14:53:00;2.40;;;0.70;;
72493;SDS011;60520;49.182;-0.348;2023-11-21T14:55:31;2.00;;;0.50;;
72493;SDS011;60520;49.182;-0.348;2023-11-21T14:58:04;1.20;;;0.45;;
72493;SDS011;60520;49.182;-0.348;2023-11-21T15:00:35;3.60;;;0.55;;
72493;SDS011;60520;49.182;-0.348;2023-11-21T15:03:09;1.42;;;0.70;;
72493;SDS011;60520;49.182;-0.348;2023-11-21T15:05:49;0.70;;;0.50;;
72493;SDS011;60520;49.182;-0.348;2023-11-21T15:08:16;1.13;;;0.50;;
72493;SDS011;60520;49.182;-0.348;2023-11-21T15:10:46;1.95;;;0.60;;